sensor_id;sensor_type;location;lat;lon;timestamp;temperature;humidity
46309;DHT22;32037;50.820;6.494;2023-09-19T00:01:26;23.50;66.80
46309;DHT22;32037;50.820;6.494;2023-09-19T00:04:17;23.50;66.60
46309;DHT22;32037;50.820;6.494;2023-09-19T00:07:09;23.50;66.70
46309;DHT22;32037;50.820;6.494;2023-09-19T00:09:56;23.50;66.60
46309;DHT22;32037;50.820;6.494;2023-09-19T00:12:43;23.50;66.90
46309;DHT22;32037;50.820;6.494;2023-09-19T00:15:30;23.50;66.50
46309;DHT22;32037;50.820;6.494;2023-09-19T00:18:19;23.40;66.00
46309;DHT22;32037;50.820;6.494;2023-09-19T00:21:10;23.50;66.50
46309;DHT22;32037;50.820;6.494;2023-09-19T00:23:57;23.40;66.40
46309;DHT22;32037;50.820;6.494;2023-09-19T00:26:44;23.40;66.10
46309;DHT22;32037;50.820;6.494;2023-09-19T00:29:33;23.40;66.80
46309;DHT22;32037;50.820;6.494;2023-09-19T00:32:21;23.40;66.70
46309;DHT22;32037;50.820;6.494;2023-09-19T00:35:08;23.40;66.30
46309;DHT22;32037;50.820;6.494;2023-09-19T00:37:57;23.40;66.50
46309;DHT22;32037;50.820;6.494;2023-09-19T00:40:44;23.40;66.70
46309;DHT22;32037;50.820;6.494;2023-09-19T00:43:31;23.40;66.10
46309;DHT22;32037;50.820;6.494;2023-09-19T00:46:21;23.40;66.40
46309;DHT22;32037;50.820;6.494;2023-09-19T00:49:09;23.40;66.30
46309;DHT22;32037;50.820;6.494;2023-09-19T00:51:56;23.40;65.80
46309;DHT22;32037;50.820;6.494;2023-09-19T00:54:45;23.40;65.80
46309;DHT22;32037;50.820;6.494;2023-09-19T00:57:32;23.40;66.00
46309;DHT22;32037;50.820;6.494;2023-09-19T01:00:19;23.40;65.80
46309;DHT22;32037;50.820;6.494;2023-09-19T01:03:07;23.40;66.10
46309;DHT22;32037;50.820;6.494;2023-09-19T01:05:55;23.40;66.00
46309;DHT22;32037;50.820;6.494;2023-09-19T01:08:43;23.40;66.10
46309;DHT22;32037;50.820;6.494;2023-09-19T01:11:35;23.30;65.90
46309;DHT22;32037;50.820;6.494;2023-09-19T01:14:30;23.30;66.00
46309;DHT22;32037;50.820;6.494;2023-09-19T01:17:25;23.30;65.90
46309;DHT22;32037;50.820;6.494;2023-09-19T01:20:19;23.30;65.60
46309;DHT22;32037;50.820;6.494;2023-09-19T01:23:17;23.30;65.50
46309;DHT22;32037;50.820;6.494;2023-09-19T01:26:33;23.30;65.90
46309;DHT22;32037;50.820;6.494;2023-09-19T01:29:33;23.30;65.80
46309;DHT22;32037;50.820;6.494;2023-09-19T01:32:26;23.30;65.60
46309;DHT22;32037;50.820;6.494;2023-09-19T01:35:12;23.30;65.80
46309;DHT22;32037;50.820;6.494;2023-09-19T01:37:59;23.30;65.80
46309;DHT22;32037;50.820;6.494;2023-09-19T01:40:50;23.30;66.00
46309;DHT22;32037;50.820;6.494;2023-09-19T01:43:42;23.30;66.00
46309;DHT22;32037;50.820;6.494;2023-09-19T01:46:33;23.30;66.10
46309;DHT22;32037;50.820;6.494;2023-09-19T01:49:31;23.30;65.70
46309;DHT22;32037;50.820;6.494;2023-09-19T01:52:22;23.30;65.90
46309;DHT22;32037;50.820;6.494;2023-09-19T01:55:13;23.30;66.00
46309;DHT22;32037;50.820;6.494;2023-09-19T01:58:07;23.30;65.90
46309;DHT22;32037;50.820;6.494;2023-09-19T02:00:56;23.20;65.70
46309;DHT22;32037;50.820;6.494;2023-09-19T02:03:46;23.20;65.50
46309;DHT22;32037;50.820;6.494;2023-09-19T02:06:35;23.20;65.70
46309;DHT22;32037;50.820;6.494;2023-09-19T02:09:22;23.20;65.80
46309;DHT22;32037;50.820;6.494;2023-09-19T02:12:09;23.20;65.80
46309;DHT22;32037;50.820;6.494;2023-09-19T02:14:56;23.20;65.90
46309;DHT22;32037;50.820;6.494;2023-09-19T02:17:44;23.20;65.90
46309;DHT22;32037;50.820;6.494;2023-09-19T02:20:31;23.20;65.80
46309;DHT22;32037;50.820;6.494;2023-09-19T02:23:20;23.20;66.10
46309;DHT22;32037;50.820;6.494;2023-09-19T02:26:07;23.20;65.70
46309;DHT22;32037;50.820;6.494;2023-09-19T02:28:54;23.20;65.90
46309;DHT22;32037;50.820;6.494;2023-09-19T02:31:40;23.20;65.80
46309;DHT22;32037;50.820;6.494;2023-09-19T02:34:27;23.20;65.80
46309;DHT22;32037;50.820;6.494;2023-09-19T02:37:14;23.20;66.30
46309;DHT22;32037;50.820;6.494;2023-09-19T02:40:04;23.20;65.70
46309;DHT22;32037;50.820;6.494;2023-09-19T02:43:04;23.10;65.60
46309;DHT22;32037;50.820;6.494;2023-09-19T02:45:52;23.20;65.80
46309;DHT22;32037;50.820;6.494;2023-09-19T02:48:40;23.10;65.70
46309;DHT22;32037;50.820;6.494;2023-09-19T02:51:27;23.10;65.60
46309;DHT22;32037;50.820;6.494;2023-09-19T02:54:14;23.10;65.90
46309;DHT22;32037;50.820;6.494;2023-09-19T02:57:02;23.10;65.50
46309;DHT22;32037;50.820;6.494;2023-09-19T02:59:53;23.10;65.50
46309;DHT22;32037;50.820;6.494;2023-09-19T03:02:41;23.10;65.90
46309;DHT22;32037;50.820;6.494;2023-09-19T03:05:29;23.10;65.50
46309;DHT22;32037;50.820;6.494;2023-09-19T03:08:16;23.10;66.00
46309;DHT22;32037;50.820;6.494;2023-09-19T03:11:06;23.10;65.50
46309;DHT22;32037;50.820;6.494;2023-09-19T03:13:59;23.00;65.60
46309;DHT22;32037;50.820;6.494;2023-09-19T03:16:46;23.10;66.50
46309;DHT22;32037;50.820;6.494;2023-09-19T03:19:33;23.00;65.60
46309;DHT22;32037;50.820;6.494;2023-09-19T03:22:20;23.00;65.50
46309;DHT22;32037;50.820;6.494;2023-09-19T03:25:08;23.00;66.00
46309;DHT22;32037;50.820;6.494;2023-09-19T03:27:58;23.00;65.90
46309;DHT22;32037;50.820;6.494;2023-09-19T03:30:58;23.00;65.80
46309;DHT22;32037;50.820;6.494;2023-09-19T03:33:46;23.00;65.70
46309;DHT22;32037;50.820;6.494;2023-09-19T03:36:33;23.00;65.60
46309;DHT22;32037;50.820;6.494;2023-09-19T03:39:20;23.00;65.40
46309;DHT22;32037;50.820;6.494;2023-09-19T03:42:07;23.00;65.70
46309;DHT22;32037;50.820;6.494;2023-09-19T03:44:54;23.00;65.70
46309;DHT22;32037;50.820;6.494;2023-09-19T03:47:42;23.00;65.80
46309;DHT22;32037;50.820;6.494;2023-09-19T03:50:29;23.00;65.80
46309;DHT22;32037;50.820;6.494;2023-09-19T03:53:16;23.00;65.20
46309;DHT22;32037;50.820;6.494;2023-09-19T03:56:03;23.00;65.30
46309;DHT22;32037;50.820;6.494;2023-09-19T03:58:51;23.00;65.60
46309;DHT22;32037;50.820;6.494;2023-09-19T04:01:38;23.00;65.30
46309;DHT22;32037;50.820;6.494;2023-09-19T04:04:28;23.00;65.50
46309;DHT22;32037;50.820;6.494;2023-09-19T04:07:15;22.90;65.60
46309;DHT22;32037;50.820;6.494;2023-09-19T04:10:02;22.90;65.30
46309;DHT22;32037;50.820;6.494;2023-09-19T04:12:52;23.00;65.80
46309;DHT22;32037;50.820;6.494;2023-09-19T04:15:40;22.90;65.40
46309;DHT22;32037;50.820;6.494;2023-09-19T04:18:27;22.90;65.40
46309;DHT22;32037;50.820;6.494;2023-09-19T04:21:18;22.90;65.30
46309;DHT22;32037;50.820;6.494;2023-09-19T04:24:05;22.90;64.90
46309;DHT22;32037;50.820;6.494;2023-09-19T04:26:52;22.90;65.40
46309;DHT22;32037;50.820;6.494;2023-09-19T04:29:38;22.90;65.40
46309;DHT22;32037;50.820;6.494;2023-09-19T04:32:28;22.90;65.20
46309;DHT22;32037;50.820;6.494;2023-09-19T04:35:16;22.90;65.10
46309;DHT22;32037;50.820;6.494;2023-09-19T04:38:04;22.90;65.40
46309;DHT22;32037;50.820;6.494;2023-09-19T04:40:57;22.80;65.60
46309;DHT22;32037;50.820;6.494;2023-09-19T04:43:44;22.80;65.20
46309;DHT22;32037;50.820;6.494;2023-09-19T04:46:31;22.80;64.90
46309;DHT22;32037;50.820;6.494;2023-09-19T04:49:18;22.80;65.10
46309;DHT22;32037;50.820;6.494;2023-09-19T04:52:05;22.80;65.30
46309;DHT22;32037;50.820;6.494;2023-09-19T04:54:53;22.80;65.30
46309;DHT22;32037;50.820;6.494;2023-09-19T04:57:40;22.80;65.70
46309;DHT22;32037;50.820;6.494;2023-09-19T05:00:27;22.80;65.30
46309;DHT22;32037;50.820;6.494;2023-09-19T05:03:16;22.80;65.20
46309;DHT22;32037;50.820;6.494;2023-09-19T05:06:05;22.80;65.70
46309;DHT22;32037;50.820;6.494;2023-09-19T05:08:52;22.80;64.40
46309;DHT22;32037;50.820;6.494;2023-09-19T05:11:40;22.80;65.30
46309;DHT22;32037;50.820;6.494;2023-09-19T05:14:26;22.80;65.30
46309;DHT22;32037;50.820;6.494;2023-09-19T05:17:13;22.80;65.70
46309;DHT22;32037;50.820;6.494;2023-09-19T05:20:03;22.80;65.20
46309;DHT22;32037;50.820;6.494;2023-09-19T05:23:01;22.80;65.60
46309;DHT22;32037;50.820;6.494;2023-09-19T05:25:47;22.80;65.20
46309;DHT22;32037;50.820;6.494;2023-09-19T05:28:36;22.70;65.20
46309;DHT22;32037;50.820;6.494;2023-09-19T05:31:23;22.70;64.80
46309;DHT22;32037;50.820;6.494;2023-09-19T05:34:13;22.70;65.30
46309;DHT22;32037;50.820;6.494;2023-09-19T05:37:00;22.70;65.00
46309;DHT22;32037;50.820;6.494;2023-09-19T05:39:47;22.70;65.30
46309;DHT22;32037;50.820;6.494;2023-09-19T05:42:33;22.70;65.20
46309;DHT22;32037;50.820;6.494;2023-09-19T05:45:22;22.70;65.00
46309;DHT22;32037;50.820;6.494;2023-09-19T05:48:10;22.70;65.00
46309;DHT22;32037;50.820;6.494;2023-09-19T05:50:59;22.60;65.00
46309;DHT22;32037;50.820;6.494;2023-09-19T05:53:47;22.70;65.30
46309;DHT22;32037;50.820;6.494;2023-09-19T05:56:33;22.60;65.40
46309;DHT22;32037;50.820;6.494;2023-09-19T05:59:20;22.60;64.50
46309;DHT22;32037;50.820;6.494;2023-09-19T06:02:09;22.60;65.00
46309;DHT22;32037;50.820;6.494;2023-09-19T06:04:58;22.60;64.50
46309;DHT22;32037;50.820;6.494;2023-09-19T06:07:44;22.50;64.80
46309;DHT22;32037;50.820;6.494;2023-09-19T06:10:32;22.60;65.10
46309;DHT22;32037;50.820;6.494;2023-09-19T06:13:19;22.60;65.00
46309;DHT22;32037;50.820;6.494;2023-09-19T06:16:06;22.60;65.00
46309;DHT22;32037;50.820;6.494;2023-09-19T06:18:57;22.50;64.80
46309;DHT22;32037;50.820;6.494;2023-09-19T06:21:45;22.50;64.20
46309;DHT22;32037;50.820;6.494;2023-09-19T06:24:31;22.50;64.70
46309;DHT22;32037;50.820;6.494;2023-09-19T06:27:18;22.50;65.00
46309;DHT22;32037;50.820;6.494;2023-09-19T06:30:06;22.50;64.70
46309;DHT22;32037;50.820;6.494;2023-09-19T06:32:57;22.50;65.10
46309;DHT22;32037;50.820;6.494;2023-09-19T06:35:47;22.50;65.00
46309;DHT22;32037;50.820;6.494;2023-09-19T06:38:34;22.50;64.90
46309;DHT22;32037;50.820;6.494;2023-09-19T06:41:21;22.50;64.80
46309;DHT22;32037;50.820;6.494;2023-09-19T06:44:11;22.50;66.70
46309;DHT22;32037;50.820;6.494;2023-09-19T06:46:57;22.50;65.10
46309;DHT22;32037;50.820;6.494;2023-09-19T06:49:44;22.50;65.10
46309;DHT22;32037;50.820;6.494;2023-09-19T06:52:32;22.50;65.00
46309;DHT22;32037;50.820;6.494;2023-09-19T06:55:21;22.50;65.10
46309;DHT22;32037;50.820;6.494;2023-09-19T06:58:10;22.50;65.00
46309;DHT22;32037;50.820;6.494;2023-09-19T07:00:57;22.50;64.80
46309;DHT22;32037;50.820;6.494;2023-09-19T07:03:44;22.40;64.10
46309;DHT22;32037;50.820;6.494;2023-09-19T07:06:31;22.40;64.40
46309;DHT22;32037;50.820;6.494;2023-09-19T07:09:20;22.40;64.30
46309;DHT22;32037;50.820;6.494;2023-09-19T07:12:08;22.40;64.60
46309;DHT22;32037;50.820;6.494;2023-09-19T07:14:54;22.40;64.20
46309;DHT22;32037;50.820;6.494;2023-09-19T07:17:41;22.40;64.40
46309;DHT22;32037;50.820;6.494;2023-09-19T07:20:28;22.40;64.00
46309;DHT22;32037;50.820;6.494;2023-09-19T07:23:18;22.40;64.40
46309;DHT22;32037;50.820;6.494;2023-09-19T07:26:08;22.40;64.60
46309;DHT22;32037;50.820;6.494;2023-09-19T07:28:54;22.40;64.80
46309;DHT22;32037;50.820;6.494;2023-09-19T07:31:43;22.40;64.50
46309;DHT22;32037;50.820;6.494;2023-09-19T07:34:30;22.40;64.50
46309;DHT22;32037;50.820;6.494;2023-09-19T07:37:16;22.40;64.80
46309;DHT22;32037;50.820;6.494;2023-09-19T07:40:04;22.30;64.20
46309;DHT22;32037;50.820;6.494;2023-09-19T07:42:53;22.40;64.50
46309;DHT22;32037;50.820;6.494;2023-09-19T07:45:40;22.40;64.30
46309;DHT22;32037;50.820;6.494;2023-09-19T07:48:27;22.40;64.20
46309;DHT22;32037;50.820;6.494;2023-09-19T07:51:13;22.30;64.50
46309;DHT22;32037;50.820;6.494;2023-09-19T07:54:01;22.40;65.80
46309;DHT22;32037;50.820;6.494;2023-09-19T07:56:48;22.30;63.90
46309;DHT22;32037;50.820;6.494;2023-09-19T07:59:37;22.30;63.20
46309;DHT22;32037;50.820;6.494;2023-09-19T08:02:27;22.30;64.90
46309;DHT22;32037;50.820;6.494;2023-09-19T08:05:14;22.30;63.80
46309;DHT22;32037;50.820;6.494;2023-09-19T08:08:02;22.30;63.50
46309;DHT22;32037;50.820;6.494;2023-09-19T08:10:52;22.30;63.60
46309;DHT22;32037;50.820;6.494;2023-09-19T08:13:41;22.30;63.50
46309;DHT22;32037;50.820;6.494;2023-09-19T08:16:31;22.30;63.10
46309;DHT22;32037;50.820;6.494;2023-09-19T08:19:18;22.30;63.00
46309;DHT22;32037;50.820;6.494;2023-09-19T08:22:09;22.30;63.10
46309;DHT22;32037;50.820;6.494;2023-09-19T08:24:56;22.30;63.00
46309;DHT22;32037;50.820;6.494;2023-09-19T08:27:43;22.30;62.80
46309;DHT22;32037;50.820;6.494;2023-09-19T08:30:33;22.30;62.70
46309;DHT22;32037;50.820;6.494;2023-09-19T08:33:21;22.30;63.40
46309;DHT22;32037;50.820;6.494;2023-09-19T08:36:08;22.30;62.50
46309;DHT22;32037;50.820;6.494;2023-09-19T08:38:55;22.30;62.20
46309;DHT22;32037;50.820;6.494;2023-09-19T08:41:42;22.30;62.60
46309;DHT22;32037;50.820;6.494;2023-09-19T08:44:29;22.30;62.30
46309;DHT22;32037;50.820;6.494;2023-09-19T08:47:20;22.30;62.30
46309;DHT22;32037;50.820;6.494;2023-09-19T08:50:19;22.30;62.30
46309;DHT22;32037;50.820;6.494;2023-09-19T08:53:10;22.30;62.10
46309;DHT22;32037;50.820;6.494;2023-09-19T08:55:59;22.30;62.40
46309;DHT22;32037;50.820;6.494;2023-09-19T08:58:50;22.30;63.10
46309;DHT22;32037;50.820;6.494;2023-09-19T09:01:39;22.30;63.20
46309;DHT22;32037;50.820;6.494;2023-09-19T09:04:27;22.30;62.10
46309;DHT22;32037;50.820;6.494;2023-09-19T09:07:16;22.30;63.10
46309;DHT22;32037;50.820;6.494;2023-09-19T09:10:05;22.30;63.20
46309;DHT22;32037;50.820;6.494;2023-09-19T09:12:53;22.30;63.30
46309;DHT22;32037;50.820;6.494;2023-09-19T09:15:41;22.30;63.40
46309;DHT22;32037;50.820;6.494;2023-09-19T09:18:30;22.30;62.80
46309;DHT22;32037;50.820;6.494;2023-09-19T09:21:17;22.30;63.30
46309;DHT22;32037;50.820;6.494;2023-09-19T09:24:28;22.30;62.60
46309;DHT22;32037;50.820;6.494;2023-09-19T09:27:15;22.30;62.70
46309;DHT22;32037;50.820;6.494;2023-09-19T09:30:03;22.30;62.90
46309;DHT22;32037;50.820;6.494;2023-09-19T09:33:07;22.30;63.00
46309;DHT22;32037;50.820;6.494;2023-09-19T09:35:58;22.30;63.10
46309;DHT22;32037;50.820;6.494;2023-09-19T09:38:47;22.30;62.10
46309;DHT22;32037;50.820;6.494;2023-09-19T09:41:37;22.30;62.80
46309;DHT22;32037;50.820;6.494;2023-09-19T09:44:25;22.30;62.80
46309;DHT22;32037;50.820;6.494;2023-09-19T09:47:45;22.20;62.70
46309;DHT22;32037;50.820;6.494;2023-09-19T09:50:47;22.20;62.90
46309;DHT22;32037;50.820;6.494;2023-09-19T09:53:41;22.20;63.10
46309;DHT22;32037;50.820;6.494;2023-09-19T09:56:31;22.20;63.10
46309;DHT22;32037;50.820;6.494;2023-09-19T09:59:20;22.20;62.40
46309;DHT22;32037;50.820;6.494;2023-09-19T10:02:09;22.20;62.70
46309;DHT22;32037;50.820;6.494;2023-09-19T10:05:11;22.20;63.00
46309;DHT22;32037;50.820;6.494;2023-09-19T10:08:11;22.20;62.70
46309;DHT22;32037;50.820;6.494;2023-09-19T10:10:59;22.20;63.00
46309;DHT22;32037;50.820;6.494;2023-09-19T10:13:51;22.20;62.60
46309;DHT22;32037;50.820;6.494;2023-09-19T10:16:44;22.20;63.20
46309;DHT22;32037;50.820;6.494;2023-09-19T10:19:37;22.20;63.30
46309;DHT22;32037;50.820;6.494;2023-09-19T10:22:27;22.20;61.70
46309;DHT22;32037;50.820;6.494;2023-09-19T10:25:17;22.20;63.00
46309;DHT22;32037;50.820;6.494;2023-09-19T10:28:07;22.20;62.50
46309;DHT22;32037;50.820;6.494;2023-09-19T10:30:57;22.20;63.10
46309;DHT22;32037;50.820;6.494;2023-09-19T10:33:47;22.20;62.80
46309;DHT22;32037;50.820;6.494;2023-09-19T10:36:36;22.20;62.30
46309;DHT22;32037;50.820;6.494;2023-09-19T10:39:25;22.20;61.20
46309;DHT22;32037;50.820;6.494;2023-09-19T10:42:14;22.20;61.40
46309;DHT22;32037;50.820;6.494;2023-09-19T10:45:04;22.20;61.70
46309;DHT22;32037;50.820;6.494;2023-09-19T10:47:59;22.20;62.10
46309;DHT22;32037;50.820;6.494;2023-09-19T10:50:49;22.20;61.60
46309;DHT22;32037;50.820;6.494;2023-09-19T10:53:43;22.20;62.30
46309;DHT22;32037;50.820;6.494;2023-09-19T10:56:36;22.20;61.80
46309;DHT22;32037;50.820;6.494;2023-09-19T10:59:24;22.20;61.60
46309;DHT22;32037;50.820;6.494;2023-09-19T11:02:17;22.20;61.50
46309;DHT22;32037;50.820;6.494;2023-09-19T11:05:12;22.10;61.30
46309;DHT22;32037;50.820;6.494;2023-09-19T11:07:59;22.10;60.50
46309;DHT22;32037;50.820;6.494;2023-09-19T11:10:50;22.10;60.90
46309;DHT22;32037;50.820;6.494;2023-09-19T11:13:38;22.10;60.60
46309;DHT22;32037;50.820;6.494;2023-09-19T11:16:27;22.10;60.00
46309;DHT22;32037;50.820;6.494;2023-09-19T11:19:14;22.10;60.10
46309;DHT22;32037;50.820;6.494;2023-09-19T11:22:02;22.10;60.80
46309;DHT22;32037;50.820;6.494;2023-09-19T11:24:52;22.10;60.00
46309;DHT22;32037;50.820;6.494;2023-09-19T11:34:47;22.10;59.00
46309;DHT22;32037;50.820;6.494;2023-09-19T11:38:00;22.10;60.80
46309;DHT22;32037;50.820;6.494;2023-09-19T11:41:36;22.10;59.50
46309;DHT22;32037;50.820;6.494;2023-09-19T11:44:33;22.10;59.30
46309;DHT22;32037;50.820;6.494;2023-09-19T11:47:23;22.10;59.10
46309;DHT22;32037;50.820;6.494;2023-09-19T11:50:13;22.00;59.40
46309;DHT22;32037;50.820;6.494;2023-09-19T11:53:05;22.00;60.70
46309;DHT22;32037;50.820;6.494;2023-09-19T11:55:52;22.00;59.60
46309;DHT22;32037;50.820;6.494;2023-09-19T11:58:41;22.10;60.00
46309;DHT22;32037;50.820;6.494;2023-09-19T12:01:30;22.00;59.60
46309;DHT22;32037;50.820;6.494;2023-09-19T12:04:19;22.00;59.40
46309;DHT22;32037;50.820;6.494;2023-09-19T12:07:19;22.00;59.40
46309;DHT22;32037;50.820;6.494;2023-09-19T12:10:08;22.00;60.00
46309;DHT22;32037;50.820;6.494;2023-09-19T12:12:57;22.00;60.00
46309;DHT22;32037;50.820;6.494;2023-09-19T12:15:45;22.00;60.10
46309;DHT22;32037;50.820;6.494;2023-09-19T12:18:33;22.00;60.20
46309;DHT22;32037;50.820;6.494;2023-09-19T12:21:28;22.00;60.50
46309;DHT22;32037;50.820;6.494;2023-09-19T12:24:18;22.00;60.30
46309;DHT22;32037;50.820;6.494;2023-09-19T12:27:05;22.00;60.60
46309;DHT22;32037;50.820;6.494;2023-09-19T12:29:53;22.00;59.80
46309;DHT22;32037;50.820;6.494;2023-09-19T12:32:41;22.00;59.50
46309;DHT22;32037;50.820;6.494;2023-09-19T12:35:28;22.00;60.30
46309;DHT22;32037;50.820;6.494;2023-09-19T12:38:23;22.00;59.00
46309;DHT22;32037;50.820;6.494;2023-09-19T12:41:11;22.00;59.50
46309;DHT22;32037;50.820;6.494;2023-09-19T12:43:58;22.10;60.10
46309;DHT22;32037;50.820;6.494;2023-09-19T12:46:46;22.00;59.70
46309;DHT22;32037;50.820;6.494;2023-09-19T12:49:32;22.10;59.90
46309;DHT22;32037;50.820;6.494;2023-09-19T12:52:19;22.00;60.00
46309;DHT22;32037;50.820;6.494;2023-09-19T12:55:06;22.00;59.80
46309;DHT22;32037;50.820;6.494;2023-09-19T12:58:07;22.00;60.30
46309;DHT22;32037;50.820;6.494;2023-09-19T13:00:55;22.00;60.00
46309;DHT22;32037;50.820;6.494;2023-09-19T13:03:41;22.10;59.90
46309;DHT22;32037;50.820;6.494;2023-09-19T13:06:35;22.10;60.20
46309;DHT22;32037;50.820;6.494;2023-09-19T13:09:24;22.00;59.80
46309;DHT22;32037;50.820;6.494;2023-09-19T13:12:35;22.10;59.90
46309;DHT22;32037;50.820;6.494;2023-09-19T13:15:25;22.10;59.50
46309;DHT22;32037;50.820;6.494;2023-09-19T13:18:15;22.00;59.50
46309;DHT22;32037;50.820;6.494;2023-09-19T13:21:07;22.00;59.60
46309;DHT22;32037;50.820;6.494;2023-09-19T13:24:01;22.00;58.90
46309;DHT22;32037;50.820;6.494;2023-09-19T13:27:03;22.00;59.30
46309;DHT22;32037;50.820;6.494;2023-09-19T13:29:52;22.10;59.10
46309;DHT22;32037;50.820;6.494;2023-09-19T13:32:40;22.10;61.00
46309;DHT22;32037;50.820;6.494;2023-09-19T13:35:29;22.10;59.70
46309;DHT22;32037;50.820;6.494;2023-09-19T13:38:15;22.10;60.20
46309;DHT22;32037;50.820;6.494;2023-09-19T13:41:04;22.10;59.80
46309;DHT22;32037;50.820;6.494;2023-09-19T13:43:51;22.10;59.90
46309;DHT22;32037;50.820;6.494;2023-09-19T13:46:38;22.10;59.70
46309;DHT22;32037;50.820;6.494;2023-09-19T13:49:28;22.10;59.60
46309;DHT22;32037;50.820;6.494;2023-09-19T13:52:16;22.10;60.00
46309;DHT22;32037;50.820;6.494;2023-09-19T13:55:04;22.10;59.80
46309;DHT22;32037;50.820;6.494;2023-09-19T13:57:52;22.10;59.90
46309;DHT22;32037;50.820;6.494;2023-09-19T14:00:41;22.10;59.90
46309;DHT22;32037;50.820;6.494;2023-09-19T14:03:29;22.10;59.70
46309;DHT22;32037;50.820;6.494;2023-09-19T14:06:18;22.10;60.10
46309;DHT22;32037;50.820;6.494;2023-09-19T14:09:05;22.10;60.20
46309;DHT22;32037;50.820;6.494;2023-09-19T14:11:53;22.10;60.10
46309;DHT22;32037;50.820;6.494;2023-09-19T14:14:39;22.10;59.90
46309;DHT22;32037;50.820;6.494;2023-09-19T14:17:28;22.10;59.90
46309;DHT22;32037;50.820;6.494;2023-09-19T14:20:15;22.10;60.00
46309;DHT22;32037;50.820;6.494;2023-09-19T14:23:03;22.10;59.90
46309;DHT22;32037;50.820;6.494;2023-09-19T14:25:50;22.10;59.70
46309;DHT22;32037;50.820;6.494;2023-09-19T14:28:37;22.10;59.80
46309;DHT22;32037;50.820;6.494;2023-09-19T14:31:25;22.10;60.00
46309;DHT22;32037;50.820;6.494;2023-09-19T14:34:13;22.10;60.30
46309;DHT22;32037;50.820;6.494;2023-09-19T14:37:00;22.10;59.60
46309;DHT22;32037;50.820;6.494;2023-09-19T14:39:29;22.10;59.80
46309;DHT22;32037;50.820;6.494;2023-09-19T14:41:57;22.10;60.20
46309;DHT22;32037;50.820;6.494;2023-09-19T14:44:26;22.10;59.90
46309;DHT22;32037;50.820;6.494;2023-09-19T14:46:55;22.10;60.40
46309;DHT22;32037;50.820;6.494;2023-09-19T14:49:23;22.10;60.10
46309;DHT22;32037;50.820;6.494;2023-09-19T14:51:52;22.10;60.20
46309;DHT22;32037;50.820;6.494;2023-09-19T14:54:20;22.10;60.20
46309;DHT22;32037;50.820;6.494;2023-09-19T14:56:52;22.10;60.10
46309;DHT22;32037;50.820;6.494;2023-09-19T14:59:20;22.10;60.40
46309;DHT22;32037;50.820;6.494;2023-09-19T15:01:48;22.10;60.30
46309;DHT22;32037;50.820;6.494;2023-09-19T15:04:17;22.10;60.30
46309;DHT22;32037;50.820;6.494;2023-09-19T15:06:45;22.10;60.30
46309;DHT22;32037;50.820;6.494;2023-09-19T15:09:15;22.10;60.30
46309;DHT22;32037;50.820;6.494;2023-09-19T15:11:45;22.10;59.70
46309;DHT22;32037;50.820;6.494;2023-09-19T15:14:15;22.10;60.30
46309;DHT22;32037;50.820;6.494;2023-09-19T15:16:43;22.10;60.00
46309;DHT22;32037;50.820;6.494;2023-09-19T15:19:11;22.10;60.30
46309;DHT22;32037;50.820;6.494;2023-09-19T15:21:39;22.10;60.30
46309;DHT22;32037;50.820;6.494;2023-09-19T15:24:08;22.10;60.70
46309;DHT22;32037;50.820;6.494;2023-09-19T15:26:37;22.10;60.50
46309;DHT22;32037;50.820;6.494;2023-09-19T15:29:06;22.20;60.50
46309;DHT22;32037;50.820;6.494;2023-09-19T15:31:36;22.20;60.00
46309;DHT22;32037;50.820;6.494;2023-09-19T15:34:05;22.10;60.20
46309;DHT22;32037;50.820;6.494;2023-09-19T15:36:34;22.10;60.20
46309;DHT22;32037;50.820;6.494;2023-09-19T15:39:03;22.10;60.10
46309;DHT22;32037;50.820;6.494;2023-09-19T15:41:34;22.20;60.00
46309;DHT22;32037;50.820;6.494;2023-09-19T15:44:10;22.20;60.50
46309;DHT22;32037;50.820;6.494;2023-09-19T15:46:40;22.20;60.60
46309;DHT22;32037;50.820;6.494;2023-09-19T15:49:08;22.20;60.50
46309;DHT22;32037;50.820;6.494;2023-09-19T15:51:37;22.20;60.20
46309;DHT22;32037;50.820;6.494;2023-09-19T15:54:08;22.20;60.30
46309;DHT22;32037;50.820;6.494;2023-09-19T15:56:37;22.10;60.40
46309;DHT22;32037;50.820;6.494;2023-09-19T15:59:08;22.20;60.50
46309;DHT22;32037;50.820;6.494;2023-09-19T16:01:40;22.20;60.50
46309;DHT22;32037;50.820;6.494;2023-09-19T16:04:10;22.20;61.30
46309;DHT22;32037;50.820;6.494;2023-09-19T16:06:40;22.20;60.60
46309;DHT22;32037;50.820;6.494;2023-09-19T16:09:08;22.20;60.20
46309;DHT22;32037;50.820;6.494;2023-09-19T16:11:37;22.20;60.70
46309;DHT22;32037;50.820;6.494;2023-09-19T16:14:05;22.20;60.70
46309;DHT22;32037;50.820;6.494;2023-09-19T16:16:34;22.20;60.30
46309;DHT22;32037;50.820;6.494;2023-09-19T16:19:04;22.20;60.20
46309;DHT22;32037;50.820;6.494;2023-09-19T16:21:38;22.20;60.80
46309;DHT22;32037;50.820;6.494;2023-09-19T16:24:07;22.20;60.70
46309;DHT22;32037;50.820;6.494;2023-09-19T16:26:37;22.20;60.60
46309;DHT22;32037;50.820;6.494;2023-09-19T16:29:06;22.20;60.50
46309;DHT22;32037;50.820;6.494;2023-09-19T16:31:37;22.20;60.20
46309;DHT22;32037;50.820;6.494;2023-09-19T16:34:06;22.20;60.50
46309;DHT22;32037;50.820;6.494;2023-09-19T16:36:36;22.20;60.20
46309;DHT22;32037;50.820;6.494;2023-09-19T16:39:05;22.20;60.90
46309;DHT22;32037;50.820;6.494;2023-09-19T16:41:34;22.20;60.60
46309;DHT22;32037;50.820;6.494;2023-09-19T16:44:03;22.20;60.80
46309;DHT22;32037;50.820;6.494;2023-09-19T16:46:35;22.20;60.70
46309;DHT22;32037;50.820;6.494;2023-09-19T16:49:04;22.20;60.00
46309;DHT22;32037;50.820;6.494;2023-09-19T16:51:34;22.20;60.70
46309;DHT22;32037;50.820;6.494;2023-09-19T16:54:02;22.20;60.70
46309;DHT22;32037;50.820;6.494;2023-09-19T16:56:30;22.20;60.30
46309;DHT22;32037;50.820;6.494;2023-09-19T16:59:03;22.20;60.50
46309;DHT22;32037;50.820;6.494;2023-09-19T17:01:33;22.20;60.50
46309;DHT22;32037;50.820;6.494;2023-09-19T17:04:02;22.20;60.20
46309;DHT22;32037;50.820;6.494;2023-09-19T17:06:31;22.20;60.40
46309;DHT22;32037;50.820;6.494;2023-09-19T17:09:02;22.20;60.90
46309;DHT22;32037;50.820;6.494;2023-09-19T17:11:31;22.20;60.80
46309;DHT22;32037;50.820;6.494;2023-09-19T17:14:00;22.20;60.60
46309;DHT22;32037;50.820;6.494;2023-09-19T17:16:30;22.20;60.80
46309;DHT22;32037;50.820;6.494;2023-09-19T17:18:58;22.20;60.80
46309;DHT22;32037;50.820;6.494;2023-09-19T17:21:27;22.20;60.90
46309;DHT22;32037;50.820;6.494;2023-09-19T17:23:55;22.20;60.80
46309;DHT22;32037;50.820;6.494;2023-09-19T17:26:26;22.20;60.40
46309;DHT22;32037;50.820;6.494;2023-09-19T17:28:55;22.20;60.30
46309;DHT22;32037;50.820;6.494;2023-09-19T17:31:25;22.20;60.30
46309;DHT22;32037;50.820;6.494;2023-09-19T17:33:55;22.20;60.10